イルクーツク の空港の天気 - METARとTAF

イルクーツク国際空港 ( UIII / IKT ) - ロシア イルクーツク
飛行場実況気象(Metar)
観測時間02/28 08:30 +08 (02/28 00:30 UTC)
風向・風速静穏 0m/s
視程5000m
天気現象もや
少しの雲 雲底高度 60m
気温-20℃
湿度77%
気圧1032hPa
METARUIII 280030Z 00000MPS 5000 BR FEW002 M20/M23 Q1032 R30/910350 NOSIG RMK QBB070 QFE729/0972
過去の天気等 Google飛行場航空写真 Wunderground天気予報

過去48時間のMETAR

飛行場予報(TAF)
発表時間: 2/28 08:24 +08 (2/28 00:24 UTC)
予報対象時間: 28日8時 +08 ~ 1日8時 +08
風向・風速北西 4m/s
視程10km以上
なし
28日8時 +08 ~ 28日11時 +08 に一時的に
視程500m
天気現象氷霧
全天を覆う雲 鉛直視程 30m
28日18時 +08 ~ 28日20時 +08 に徐々に
風向・風速南南東 5m/s
TAF AMD UIII 280024Z 2800/2824 32004MPS 9999 NSC
TEMPO 2800/2803 0500 FZFG VV001
BECMG 2810/2812 16005MPS